createdAt,value
2018-05-29T00:00:02.461Z,18.00
2018-05-29T00:01:02.483Z,22.50
2018-05-29T00:02:02.482Z,19.80
2018-05-29T00:03:02.500Z,18.70
2018-05-29T00:04:02.635Z,18.10
2018-05-29T00:05:02.549Z,18.10
2018-05-29T00:06:02.541Z,19.00
2018-05-29T00:07:02.556Z,17.80
2018-05-29T00:08:02.564Z,16.30
2018-05-29T00:09:02.681Z,15.90
2018-05-29T00:10:02.585Z,15.70
2018-05-29T00:11:02.598Z,16.30
2018-05-29T00:12:02.628Z,16.30
2018-05-29T00:13:02.627Z,15.40
2018-05-29T00:14:02.765Z,14.10
2018-05-29T00:15:02.678Z,14.40
2018-05-29T00:16:02.664Z,14.70
2018-05-29T00:17:02.677Z,15.00
2018-05-29T00:18:02.697Z,15.40
2018-05-29T00:19:02.854Z,15.80
2018-05-29T00:20:02.741Z,15.50
2018-05-29T00:21:02.754Z,17.00
2018-05-29T00:22:02.769Z,18.10
2018-05-29T00:23:02.754Z,18.80
2018-05-29T00:24:02.778Z,18.90
2018-05-29T00:25:02.952Z,18.90
2018-05-29T00:26:02.801Z,18.20
2018-05-29T00:27:02.803Z,20.10
2018-05-29T00:28:02.831Z,20.00
2018-05-29T00:29:02.832Z,22.50
2018-05-29T00:30:02.944Z,24.10
2018-05-29T00:31:02.851Z,26.90
2018-05-29T00:32:02.869Z,27.80
2018-05-29T00:33:02.880Z,28.30
2018-05-29T00:34:02.893Z,30.50
2018-05-29T00:35:03.033Z,32.30
2018-05-29T00:36:02.945Z,32.60
2018-05-29T00:37:02.935Z,36.50
2018-05-29T00:38:02.955Z,37.00
2018-05-29T00:39:02.983Z,43.70
2018-05-29T00:40:03.095Z,44.30
2018-05-29T00:41:03.003Z,46.10
2018-05-29T00:42:02.993Z,46.40
2018-05-29T00:43:03.011Z,46.50
2018-05-29T00:44:03.016Z,43.90
2018-05-29T00:45:03.156Z,43.80
2018-05-29T00:46:03.066Z,44.30
2018-05-29T00:47:03.080Z,42.30
2018-05-29T00:48:03.094Z,43.30
2018-05-29T00:49:03.078Z,42.60
2018-05-29T00:50:03.218Z,42.40
2018-05-29T00:51:03.129Z,41.70
2018-05-29T00:52:03.145Z,41.70
2018-05-29T00:53:03.128Z,42.60
2018-05-29T00:54:03.144Z,42.80
2018-05-29T00:55:03.283Z,43.30
2018-05-29T00:56:03.176Z,42.30
2018-05-29T00:57:03.206Z,45.30
2018-05-29T00:58:03.218Z,44.60
2018-05-29T00:59:03.228Z,43.30
2018-05-29T01:00:03.345Z,44.30
2018-05-29T01:01:03.239Z,43.70
2018-05-29T01:02:03.240Z,43.90
2018-05-29T01:03:03.280Z,43.30
2018-05-29T01:04:03.264Z,44.90
2018-05-29T01:05:03.430Z,42.90
2018-05-29T01:06:03.289Z,43.10
2018-05-29T01:07:03.298Z,42.10
2018-05-29T01:08:03.348Z,42.80
2018-05-29T01:09:03.331Z,41.30
2018-05-29T01:10:03.447Z,40.00
2018-05-29T01:11:03.381Z,40.10
2018-05-29T01:12:03.381Z,38.90
2018-05-29T01:13:03.377Z,38.60
2018-05-29T01:14:03.391Z,39.00
2018-05-29T01:15:03.530Z,40.70
2018-05-29T01:16:03.446Z,38.80
2018-05-29T01:17:03.428Z,36.10
2018-05-29T01:18:03.438Z,35.10
2018-05-29T01:19:03.453Z,35.30
2018-05-29T01:20:03.641Z,36.00
2018-05-29T01:21:03.475Z,35.70
2018-05-29T01:22:03.491Z,34.60
2018-05-29T01:23:03.512Z,34.40
2018-05-29T01:24:03.534Z,35.40
2018-05-29T01:25:03.726Z,36.00
2018-05-29T01:26:03.537Z,34.90
2018-05-29T01:27:03.579Z,35.00
2018-05-29T01:28:03.589Z,33.60
2018-05-29T01:29:03.584Z,33.00
2018-05-29T01:30:03.790Z,32.70
2018-05-29T01:31:03.596Z,32.90
2018-05-29T01:32:03.611Z,32.40
2018-05-29T01:33:03.625Z,31.20
2018-05-29T01:34:03.643Z,32.80
2018-05-29T01:35:03.648Z,30.80
2018-05-29T01:36:03.843Z,29.90
2018-05-29T01:37:03.675Z,30.50
2018-05-29T01:38:03.708Z,31.50
2018-05-29T01:39:03.696Z,32.60
2018-05-29T01:40:03.711Z,33.10
2018-05-29T01:41:03.749Z,34.70
2018-05-29T01:42:03.735Z,32.50
2018-05-29T01:43:03.743Z,33.30
2018-05-29T01:44:03.758Z,32.90
2018-05-29T01:45:03.771Z,33.50
2018-05-29T01:46:03.785Z,34.80
2018-05-29T01:47:03.908Z,35.60
2018-05-29T01:48:03.806Z,33.60
2018-05-29T01:49:03.817Z,33.70
2018-05-29T01:50:03.860Z,34.70
2018-05-29T01:51:03.842Z,34.00
2018-05-29T01:52:03.956Z,35.80
2018-05-29T01:53:03.893Z,34.50
2018-05-29T01:54:03.882Z,34.40
2018-05-29T01:55:03.894Z,34.00
2018-05-29T01:56:03.904Z,33.30
2018-05-29T01:57:04.042Z,33.60
2018-05-29T01:58:03.940Z,33.60
2018-05-29T01:59:03.965Z,33.40
2018-05-29T02:00:03.957Z,34.00
2018-05-29T02:01:03.975Z,33.90
2018-05-29T02:02:04.127Z,35.40
2018-05-29T02:03:04.018Z,34.70
2018-05-29T02:04:04.008Z,34.10
2018-05-29T02:05:04.043Z,33.60
2018-05-29T02:06:04.027Z,33.20
2018-05-29T02:07:04.197Z,32.30
2018-05-29T02:08:04.055Z,33.00
2018-05-29T02:09:04.098Z,33.30
2018-05-29T02:10:04.071Z,32.60
2018-05-29T02:11:04.114Z,33.70
2018-05-29T02:12:04.200Z,34.00
2018-05-29T02:13:04.137Z,35.30
2018-05-29T02:14:04.128Z,32.90
2018-05-29T02:15:04.135Z,33.50
2018-05-29T02:16:04.147Z,34.50
2018-05-29T02:17:04.282Z,34.00
2018-05-29T02:18:04.200Z,33.80
2018-05-29T02:19:04.190Z,34.90
2018-05-29T02:20:04.194Z,35.20
2018-05-29T02:21:04.233Z,33.90
2018-05-29T02:22:04.332Z,36.10
2018-05-29T02:23:04.237Z,36.30
2018-05-29T02:24:04.244Z,36.90
2018-05-29T02:25:04.256Z,36.40
2018-05-29T02:26:04.266Z,34.90
2018-05-29T02:27:04.426Z,35.90
2018-05-29T02:28:04.320Z,35.40
2018-05-29T02:29:04.326Z,44.70
2018-05-29T02:30:04.345Z,40.70
2018-05-29T02:31:04.334Z,40.70
2018-05-29T02:32:04.490Z,40.80
2018-05-29T02:33:04.376Z,42.70
2018-05-29T02:34:04.391Z,51.60
2018-05-29T02:35:04.377Z,52.70
2018-05-29T02:36:04.397Z,53.30
2018-05-29T02:37:04.527Z,56.80
2018-05-29T02:38:04.438Z,59.20
2018-05-29T02:39:04.448Z,58.50
2018-05-29T02:40:04.440Z,59.40
2018-05-29T02:41:04.451Z,60.00
2018-05-29T02:42:04.561Z,52.50
2018-05-29T02:43:04.498Z,50.40
2018-05-29T02:44:04.483Z,47.70
2018-05-29T02:45:04.496Z,48.70
2018-05-29T02:46:04.534Z,50.60
2018-05-29T02:47:04.617Z,49.40
2018-05-29T02:48:04.529Z,51.70
2018-05-29T02:49:04.570Z,50.00
2018-05-29T02:50:04.584Z,50.70
2018-05-29T02:51:04.565Z,43.00
2018-05-29T02:52:04.688Z,37.60
2018-05-29T02:53:04.595Z,37.10
2018-05-29T02:54:04.627Z,37.70
2018-05-29T02:55:04.641Z,37.40
2018-05-29T02:56:04.622Z,36.70
2018-05-29T02:57:04.818Z,38.50
2018-05-29T02:58:04.651Z,35.50
2018-05-29T02:59:04.663Z,34.00
2018-05-29T03:00:04.675Z,34.10
2018-05-29T03:01:04.712Z,33.30
2018-05-29T03:02:04.696Z,29.60
2018-05-29T03:03:04.884Z,31.00
2018-05-29T03:04:04.729Z,27.10
2018-05-29T03:05:04.733Z,27.20
2018-05-29T03:06:04.771Z,27.80
2018-05-29T03:07:04.758Z,27.20
2018-05-29T03:08:05.050Z,28.50
2018-05-29T03:09:04.787Z,27.90
2018-05-29T03:10:04.790Z,28.00
2018-05-29T03:11:04.807Z,29.70
2018-05-29T03:12:04.815Z,30.00
2018-05-29T03:13:04.929Z,31.20
2018-05-29T03:14:04.848Z,33.70
2018-05-29T03:15:04.854Z,35.30
2018-05-29T03:16:04.871Z,36.30
2018-05-29T03:17:04.886Z,33.90
2018-05-29T03:18:05.003Z,34.80
2018-05-29T03:19:04.924Z,37.10
2018-05-29T03:20:04.927Z,36.00
2018-05-29T03:21:04.922Z,35.40
2018-05-29T03:22:04.946Z,38.40
2018-05-29T03:23:05.048Z,33.40
2018-05-29T03:24:04.961Z,32.90
2018-05-29T03:25:04.973Z,29.00
2018-05-29T03:26:04.981Z,29.40
2018-05-29T03:27:04.995Z,29.70
2018-05-29T03:28:05.107Z,30.00
2018-05-29T03:29:05.020Z,28.60
2018-05-29T03:30:05.033Z,29.50
2018-05-29T03:31:05.041Z,27.70
2018-05-29T03:32:05.059Z,27.40
2018-05-29T03:33:05.222Z,26.70
2018-05-29T03:34:05.106Z,25.50
2018-05-29T03:35:05.088Z,24.60
2018-05-29T03:36:05.098Z,24.70
2018-05-29T03:37:05.138Z,24.60
2018-05-29T03:38:05.226Z,24.40
2018-05-29T03:39:05.138Z,24.30
2018-05-29T03:40:05.175Z,24.40
2018-05-29T03:41:05.185Z,23.00
2018-05-29T03:42:05.180Z,22.70
2018-05-29T03:43:05.285Z,21.80
2018-05-29T03:44:05.221Z,22.50
2018-05-29T03:45:05.206Z,21.70
2018-05-29T03:46:05.242Z,21.60
2018-05-29T03:47:05.255Z,21.40
2018-05-29T03:48:05.418Z,21.60
2018-05-29T03:49:05.257Z,21.90
2018-05-29T03:50:05.265Z,21.90
2018-05-29T03:51:05.301Z,22.80
2018-05-29T03:52:05.282Z,22.80
2018-05-29T03:53:05.410Z,23.50
2018-05-29T03:54:05.313Z,24.10
2018-05-29T03:55:05.324Z,23.10
2018-05-29T03:56:05.359Z,22.80
2018-05-29T03:57:05.346Z,22.30
2018-05-29T03:58:05.515Z,22.00
2018-05-29T03:59:05.371Z,23.30
2018-05-29T04:00:05.412Z,23.90
2018-05-29T04:01:05.419Z,22.80
2018-05-29T04:02:05.409Z,23.90
2018-05-29T04:03:05.526Z,23.30
2018-05-29T04:04:05.429Z,23.60
2018-05-29T04:05:05.447Z,22.90
2018-05-29T04:06:05.462Z,22.90
2018-05-29T04:07:05.463Z,23.50
2018-05-29T04:08:05.601Z,25.00
2018-05-29T04:09:05.514Z,24.80
2018-05-29T04:10:05.492Z,24.90
2018-05-29T04:11:05.509Z,24.90
2018-05-29T04:12:05.531Z,26.30
2018-05-29T04:13:05.632Z,27.00
2018-05-29T04:14:05.567Z,24.70
2018-05-29T04:15:05.560Z,24.40
2018-05-29T04:16:05.593Z,23.80
2018-05-29T04:17:05.665Z,24.50
2018-05-29T04:18:05.697Z,25.20
2018-05-29T04:19:05.600Z,25.50
2018-05-29T04:20:05.644Z,25.80
2018-05-29T04:21:05.629Z,25.50
2018-05-29T04:22:05.660Z,26.40
2018-05-29T04:23:05.680Z,26.20
2018-05-29T04:24:05.757Z,26.60
2018-05-29T04:25:05.681Z,27.00
2018-05-29T04:26:05.682Z,26.60
2018-05-29T04:27:05.717Z,28.40
2018-05-29T04:28:05.703Z,30.50
2018-05-29T04:29:05.894Z,30.30
2018-05-29T04:30:05.751Z,30.80
2018-05-29T04:31:05.749Z,32.60
2018-05-29T04:32:05.776Z,32.80
2018-05-29T04:33:05.788Z,32.90
2018-05-29T04:34:05.874Z,32.60
2018-05-29T04:35:05.784Z,31.90
2018-05-29T04:36:05.799Z,32.90
2018-05-29T04:37:05.833Z,33.60
2018-05-29T04:38:05.846Z,33.10
2018-05-29T04:39:05.956Z,34.30
2018-05-29T04:40:05.843Z,35.40
2018-05-29T04:41:05.860Z,34.70
2018-05-29T04:42:05.874Z,35.00
2018-05-29T04:43:05.877Z,36.20
2018-05-29T04:44:06.015Z,37.30
2018-05-29T04:45:05.925Z,37.20
2018-05-29T04:46:05.938Z,37.40
2018-05-29T04:47:05.970Z,37.70
2018-05-29T04:48:05.934Z,37.80
2018-05-29T04:49:06.072Z,37.60
2018-05-29T04:50:05.954Z,40.60
2018-05-29T04:51:05.994Z,41.90
2018-05-29T04:52:05.994Z,40.80
2018-05-29T04:53:06.020Z,41.70
2018-05-29T04:54:06.108Z,41.20
2018-05-29T04:55:06.038Z,40.60
2018-05-29T04:56:06.054Z,41.10
2018-05-29T04:57:06.058Z,40.90
2018-05-29T04:58:06.047Z,39.90
2018-05-29T04:59:06.159Z,42.30
2018-05-29T05:00:06.080Z,40.10
2018-05-29T05:01:06.092Z,39.20
2018-05-29T05:02:06.101Z,42.30
2018-05-29T05:03:06.101Z,42.80
2018-05-29T05:04:06.268Z,43.90
2018-05-29T05:05:06.124Z,42.60
2018-05-29T05:06:06.140Z,44.10
2018-05-29T05:07:06.148Z,44.10
2018-05-29T05:08:06.185Z,43.60
2018-05-29T05:09:06.273Z,42.20
2018-05-29T05:10:06.192Z,42.70
2018-05-29T05:11:06.228Z,45.60
2018-05-29T05:12:06.205Z,45.40
2018-05-29T05:13:06.217Z,44.50
2018-05-29T05:14:06.356Z,46.80
2018-05-29T05:15:06.268Z,46.10
2018-05-29T05:16:06.251Z,44.70
2018-05-29T05:17:06.286Z,44.30
2018-05-29T05:18:06.275Z,44.30
2018-05-29T05:19:06.458Z,44.00
2018-05-29T05:20:06.306Z,45.40
2018-05-29T05:21:06.306Z,44.10
2018-05-29T05:22:06.320Z,42.00
2018-05-29T05:23:06.331Z,41.60
2018-05-29T05:24:06.466Z,42.10
2018-05-29T05:25:06.352Z,41.20
2018-05-29T05:26:06.366Z,41.00
2018-05-29T05:27:06.373Z,41.50
2018-05-29T05:28:06.385Z,40.00
2018-05-29T05:29:06.507Z,41.50
2018-05-29T05:30:06.492Z,42.10
2018-05-29T05:31:06.453Z,40.90
2018-05-29T05:32:06.433Z,41.60
2018-05-29T05:33:06.471Z,39.80
2018-05-29T05:34:06.581Z,41.00
2018-05-29T05:35:06.481Z,39.40
2018-05-29T05:36:06.488Z,38.60
2018-05-29T05:37:06.513Z,39.90
2018-05-29T05:38:06.497Z,38.30
2018-05-29T05:39:06.687Z,37.90
2018-05-29T05:40:06.530Z,38.10
2018-05-29T05:41:06.556Z,38.60
2018-05-29T05:42:06.543Z,38.70
2018-05-29T05:43:06.583Z,37.30
2018-05-29T05:44:06.569Z,38.10
2018-05-29T05:45:06.729Z,36.80
2018-05-29T05:46:06.653Z,36.70
2018-05-29T05:47:06.628Z,35.90
2018-05-29T05:48:06.610Z,35.20
2018-05-29T05:49:06.621Z,37.40
2018-05-29T05:50:06.659Z,35.50
2018-05-29T05:51:06.769Z,35.30
2018-05-29T05:52:06.683Z,35.30
2018-05-29T05:53:06.666Z,34.60
2018-05-29T05:54:06.677Z,34.50
2018-05-29T05:55:06.717Z,33.60
2018-05-29T05:56:06.800Z,33.20
2018-05-29T05:57:06.735Z,33.70
2018-05-29T05:58:06.725Z,33.10
2018-05-29T05:59:06.733Z,33.30
2018-05-29T06:00:06.739Z,32.30
2018-05-29T06:01:06.881Z,31.00
2018-05-29T06:02:06.782Z,31.50
2018-05-29T06:03:06.776Z,31.70
2018-05-29T06:04:06.817Z,32.50
2018-05-29T06:05:06.844Z,33.20
2018-05-29T06:06:06.964Z,31.80
2018-05-29T06:07:06.849Z,31.00
2018-05-29T06:08:06.842Z,32.10
2018-05-29T06:09:06.853Z,30.50
2018-05-29T06:10:06.862Z,30.60
2018-05-29T06:11:06.973Z,28.80
2018-05-29T06:12:06.898Z,29.80
2018-05-29T06:13:06.926Z,28.70
2018-05-29T06:14:06.901Z,27.20
2018-05-29T06:15:06.938Z,27.60
2018-05-29T06:16:07.108Z,27.20
2018-05-29T06:17:06.969Z,28.20
2018-05-29T06:18:06.941Z,27.80
2018-05-29T06:19:06.955Z,26.30
2018-05-29T06:20:06.979Z,27.90
2018-05-29T06:21:07.088Z,27.30
2018-05-29T06:22:06.999Z,27.10
2018-05-29T06:23:07.034Z,27.40
2018-05-29T06:24:07.029Z,27.80
2018-05-29T06:25:07.041Z,28.70
2018-05-29T06:26:07.171Z,28.50
2018-05-29T06:27:07.078Z,27.40
2018-05-29T06:28:07.068Z,28.30
2018-05-29T06:29:07.067Z,26.90
2018-05-29T06:30:07.082Z,26.10
2018-05-29T06:31:07.210Z,25.70
2018-05-29T06:32:07.106Z,25.90
2018-05-29T06:33:07.152Z,25.70
2018-05-29T06:34:07.157Z,25.30
2018-05-29T06:35:07.155Z,25.60
2018-05-29T06:36:07.258Z,25.60
2018-05-29T06:37:07.165Z,25.70
2018-05-29T06:38:07.213Z,25.20
2018-05-29T06:39:07.212Z,26.00
2018-05-29T06:40:07.199Z,25.90
2018-05-29T06:41:07.342Z,26.30
2018-05-29T06:42:07.240Z,27.80
2018-05-29T06:43:07.232Z,27.10
2018-05-29T06:44:07.278Z,26.30
2018-05-29T06:45:07.381Z,26.90
2018-05-29T06:46:07.388Z,27.60
2018-05-29T06:47:07.294Z,27.60
2018-05-29T06:48:07.311Z,22.10
2018-05-29T06:49:07.302Z,26.50
2018-05-29T06:50:07.324Z,27.40
2018-05-29T06:51:07.426Z,26.70
2018-05-29T06:52:07.349Z,27.60
2018-05-29T06:53:07.361Z,28.10
2018-05-29T06:54:07.392Z,27.90
2018-05-29T06:55:07.400Z,27.70
2018-05-29T06:56:07.492Z,30.60
2018-05-29T06:57:07.430Z,31.40
2018-05-29T06:58:07.418Z,28.20
2018-05-29T06:59:07.449Z,30.40
2018-05-29T07:00:07.455Z,30.90
2018-05-29T07:01:07.627Z,31.10
2018-05-29T07:02:07.488Z,32.70
2018-05-29T07:03:07.467Z,31.60
2018-05-29T07:04:07.484Z,32.00
2018-05-29T07:05:07.511Z,31.90
2018-05-29T07:06:07.661Z,30.80
2018-05-29T07:07:07.581Z,31.60
2018-05-29T07:08:07.535Z,31.80
2018-05-29T07:09:07.544Z,34.40
2018-05-29T07:10:07.549Z,37.70
2018-05-29T07:11:07.583Z,37.70
2018-05-29T07:12:07.670Z,38.00
2018-05-29T07:13:07.588Z,39.90
2018-05-29T07:14:07.596Z,48.40
2018-05-29T07:15:07.605Z,56.00
2018-05-29T07:16:07.645Z,53.00
2018-05-29T07:17:07.653Z,43.30
2018-05-29T07:18:07.765Z,51.20
2018-05-29T07:19:07.662Z,55.80
2018-05-29T07:20:07.688Z,52.20
2018-05-29T07:21:07.674Z,45.20
2018-05-29T07:22:07.680Z,49.70
2018-05-29T07:23:07.850Z,54.30
2018-05-29T07:24:07.724Z,42.10
2018-05-29T07:25:07.719Z,44.40
2018-05-29T07:26:07.734Z,33.20
2018-05-29T07:27:07.747Z,39.50
2018-05-29T07:28:07.869Z,40.30
2018-05-29T07:29:07.767Z,40.20
2018-05-29T07:30:07.782Z,40.50
2018-05-29T07:31:07.791Z,39.30
2018-05-29T07:32:07.834Z,39.50
2018-05-29T07:33:07.913Z,35.30
2018-05-29T07:34:07.825Z,33.20
2018-05-29T07:35:07.849Z,34.10
2018-05-29T07:36:07.876Z,34.30
2018-05-29T07:37:07.886Z,28.90
2018-05-29T07:38:07.972Z,36.20
2018-05-29T07:39:07.882Z,36.70
2018-05-29T07:40:07.921Z,38.30
2018-05-29T07:41:07.932Z,31.80
2018-05-29T07:42:07.946Z,39.80
2018-05-29T07:43:08.076Z,42.00
2018-05-29T07:44:07.970Z,45.60
2018-05-29T07:45:08.011Z,45.10
2018-05-29T07:46:07.990Z,50.50
2018-05-29T07:47:07.977Z,51.70
2018-05-29T07:48:08.103Z,48.20
2018-05-29T07:49:08.025Z,41.70
2018-05-29T07:50:08.024Z,31.70
2018-05-29T07:51:08.027Z,42.80
2018-05-29T07:52:08.035Z,39.90
2018-05-29T07:53:08.147Z,51.20
2018-05-29T07:54:08.065Z,37.50
2018-05-29T07:55:08.070Z,36.00
2018-05-29T07:56:08.106Z,31.30
2018-05-29T07:57:08.101Z,36.10
2018-05-29T07:58:08.280Z,36.70
2018-05-29T07:59:08.135Z,36.60
2018-05-29T08:00:08.140Z,35.10
2018-05-29T08:01:08.141Z,34.50
2018-05-29T08:02:08.177Z,34.70
2018-05-29T08:03:08.264Z,32.70
2018-05-29T08:04:08.186Z,33.70
2018-05-29T08:05:08.195Z,33.30
2018-05-29T08:06:08.212Z,32.60
2018-05-29T08:07:08.211Z,33.10
2018-05-29T08:08:08.321Z,32.00
2018-05-29T08:09:08.242Z,32.60
2018-05-29T08:10:08.270Z,32.50
2018-05-29T08:11:08.255Z,33.80
2018-05-29T08:12:08.278Z,31.00
2018-05-29T08:13:08.392Z,24.60
2018-05-29T08:14:08.287Z,34.00
2018-05-29T08:15:08.300Z,29.40
2018-05-29T08:16:08.312Z,22.90
2018-05-29T08:17:08.351Z,29.10
2018-05-29T08:18:08.486Z,30.80
2018-05-29T08:19:08.358Z,31.60
2018-05-29T08:20:08.385Z,26.40
2018-05-29T08:21:08.369Z,26.10
2018-05-29T08:22:08.381Z,25.20
2018-05-29T08:23:08.521Z,29.20
2018-05-29T08:24:08.409Z,29.80
2018-05-29T08:25:08.418Z,30.30
2018-05-29T08:26:08.455Z,29.70
2018-05-29T08:27:08.442Z,30.90
2018-05-29T08:28:08.559Z,32.60
2018-05-29T08:29:08.463Z,31.00
2018-05-29T08:30:08.477Z,31.50
2018-05-29T08:31:08.506Z,31.60
2018-05-29T08:32:08.497Z,30.80
2018-05-29T08:33:08.644Z,31.00
2018-05-29T08:34:08.521Z,31.30
2018-05-29T08:35:08.545Z,32.90
2018-05-29T08:36:08.573Z,33.10
2018-05-29T08:37:08.557Z,32.20
2018-05-29T08:38:08.667Z,32.30
2018-05-29T08:39:08.606Z,33.00
2018-05-29T08:40:08.588Z,32.30
2018-05-29T08:41:08.603Z,31.40
2018-05-29T08:42:08.621Z,31.90
2018-05-29T08:43:08.657Z,31.50
2018-05-29T08:44:08.736Z,33.20
2018-05-29T08:45:08.648Z,31.70
2018-05-29T08:46:08.702Z,31.40
2018-05-29T08:47:08.680Z,31.90
2018-05-29T08:48:08.680Z,32.80
2018-05-29T08:49:08.808Z,33.10
2018-05-29T08:50:08.708Z,33.50
2018-05-29T08:51:08.717Z,30.80
2018-05-29T08:52:08.733Z,31.00
2018-05-29T08:53:08.836Z,31.00
2018-05-29T08:54:08.923Z,31.30
2018-05-29T08:55:08.831Z,30.90
2018-05-29T08:56:08.845Z,30.30
2018-05-29T08:57:08.883Z,29.90
2018-05-29T08:58:08.879Z,28.90
2018-05-29T08:59:09.005Z,29.90
2018-05-29T09:00:08.896Z,30.30
2018-05-29T09:01:08.930Z,30.80
2018-05-29T09:02:08.914Z,26.80
2018-05-29T09:03:08.861Z,27.10
2018-05-29T09:04:08.988Z,24.40
2018-05-29T09:05:08.884Z,30.10
2018-05-29T09:06:08.894Z,29.10
2018-05-29T09:07:08.931Z,30.60
2018-05-29T09:08:08.918Z,25.60
2018-05-29T09:09:09.032Z,25.30
2018-05-29T09:10:08.966Z,29.60
2018-05-29T09:11:08.977Z,31.00
2018-05-29T09:12:08.962Z,30.60
2018-05-29T09:13:08.977Z,30.60
2018-05-29T09:14:09.163Z,30.00
2018-05-29T09:15:08.997Z,29.80
2018-05-29T09:16:09.042Z,28.60
2018-05-29T09:17:09.019Z,29.00
2018-05-29T09:18:09.056Z,29.70
2018-05-29T09:19:09.144Z,26.30
2018-05-29T09:20:09.057Z,27.00
2018-05-29T09:21:09.065Z,22.80
2018-05-29T09:22:09.083Z,25.10
2018-05-29T09:23:09.117Z,25.80
2018-05-29T09:24:09.231Z,28.10
2018-05-29T09:25:09.114Z,28.60
2018-05-29T09:26:09.126Z,29.60
2018-05-29T09:27:09.147Z,29.10
2018-05-29T09:28:09.151Z,28.60
2018-05-29T09:29:09.259Z,27.10
2018-05-29T09:30:09.199Z,29.10
2018-05-29T09:31:09.182Z,30.00
2018-05-29T09:32:09.194Z,29.80
2018-05-29T09:33:09.270Z,30.10
2018-05-29T09:34:09.324Z,28.90
2018-05-29T09:35:09.231Z,30.40
2018-05-29T09:36:09.250Z,30.70
2018-05-29T09:37:09.254Z,31.10
2018-05-29T09:38:09.266Z,30.90
2018-05-29T09:39:09.402Z,30.90
2018-05-29T09:40:09.302Z,31.10
2018-05-29T09:41:09.299Z,31.20
2018-05-29T09:42:09.319Z,32.20
2018-05-29T09:43:09.335Z,32.70
2018-05-29T09:44:09.436Z,33.20
2018-05-29T09:45:09.344Z,33.60
2018-05-29T09:46:09.384Z,32.30
2018-05-29T09:47:09.372Z,31.70
2018-05-29T09:48:09.382Z,31.80
2018-05-29T09:49:09.522Z,33.10
2018-05-29T09:50:09.405Z,32.90
2018-05-29T09:51:09.445Z,36.00
2018-05-29T09:52:09.429Z,35.10
2018-05-29T09:53:09.448Z,33.10
2018-05-29T09:54:09.581Z,33.50
2018-05-29T09:55:09.490Z,33.30
2018-05-29T09:56:09.491Z,33.10
2018-05-29T09:57:09.512Z,33.20
2018-05-29T09:58:09.523Z,32.80
2018-05-29T09:59:09.610Z,32.40
2018-05-29T10:00:09.538Z,32.70
2018-05-29T10:01:09.612Z,30.80
2018-05-29T10:02:09.546Z,32.40
2018-05-29T10:03:09.559Z,33.30
2018-05-29T10:04:09.597Z,34.50
2018-05-29T10:05:09.732Z,32.70
2018-05-29T10:06:09.593Z,33.90
2018-05-29T10:07:09.633Z,32.80
2018-05-29T10:08:09.646Z,34.20
2018-05-29T10:09:09.656Z,34.20
2018-05-29T10:10:09.767Z,34.20
2018-05-29T10:11:09.681Z,35.00
2018-05-29T10:12:09.670Z,33.30
2018-05-29T10:13:09.733Z,34.10
2018-05-29T10:14:09.716Z,35.30
2018-05-29T10:15:09.801Z,32.70
2018-05-29T10:16:09.714Z,32.40
2018-05-29T10:17:09.725Z,31.70
2018-05-29T10:18:09.737Z,31.70
2018-05-29T10:19:09.758Z,31.50
2018-05-29T10:20:09.860Z,32.30
2018-05-29T10:21:09.783Z,30.80
2018-05-29T10:22:09.809Z,32.00
2018-05-29T10:23:09.797Z,31.20
2018-05-29T10:24:09.832Z,31.70
2018-05-29T10:25:09.944Z,31.80
2018-05-29T10:26:09.846Z,28.80
2018-05-29T10:27:09.843Z,28.70
2018-05-29T10:28:09.854Z,32.10
2018-05-29T10:29:09.893Z,32.00
2018-05-29T10:30:09.977Z,32.60
2018-05-29T10:31:09.890Z,27.00
2018-05-29T10:32:09.903Z,30.60
2018-05-29T10:33:09.924Z,31.00
2018-05-29T10:34:09.953Z,32.00
2018-05-29T10:35:10.042Z,32.40
2018-05-29T10:36:09.950Z,29.30
2018-05-29T10:37:09.964Z,28.10
2018-05-29T10:38:09.973Z,31.20
2018-05-29T10:39:10.011Z,30.20
2018-05-29T10:40:10.102Z,28.70
2018-05-29T10:41:10.037Z,30.00
2018-05-29T10:42:10.047Z,29.30
2018-05-29T10:43:10.035Z,31.30
2018-05-29T10:44:10.060Z,29.90
2018-05-29T10:45:10.157Z,26.40
2018-05-29T10:46:10.072Z,29.10
2018-05-29T10:47:10.095Z,30.30
2018-05-29T10:48:10.096Z,28.70
2018-05-29T10:49:10.121Z,27.00
2018-05-29T10:50:10.237Z,29.70
2018-05-29T10:51:10.154Z,27.40
2018-05-29T10:52:10.144Z,29.90
2018-05-29T10:53:10.150Z,29.10
2018-05-29T10:54:10.190Z,29.10
2018-05-29T10:55:10.354Z,28.80
2018-05-29T10:56:10.217Z,29.20
2018-05-29T10:57:10.230Z,28.70
2018-05-29T10:58:10.240Z,28.80
2018-05-29T10:59:10.262Z,28.20
2018-05-29T11:00:10.415Z,28.40
2018-05-29T11:01:10.249Z,28.30
2018-05-29T11:02:10.262Z,28.20
2018-05-29T11:03:10.301Z,27.20
2018-05-29T11:04:10.316Z,26.50
2018-05-29T11:05:10.474Z,28.00
2018-05-29T11:06:10.310Z,25.20
2018-05-29T11:07:10.323Z,25.10
2018-05-29T11:08:10.361Z,24.10
2018-05-29T11:09:10.373Z,26.20
2018-05-29T11:10:10.475Z,25.20
2018-05-29T11:11:10.388Z,24.90
2018-05-29T11:12:10.386Z,25.00
2018-05-29T11:13:10.397Z,24.20
2018-05-29T11:14:10.451Z,27.00
2018-05-29T11:15:10.574Z,26.20
2018-05-29T11:16:10.436Z,26.70
2018-05-29T11:17:10.476Z,25.60
2018-05-29T11:18:10.464Z,25.90
2018-05-29T11:19:10.475Z,25.20
2018-05-29T11:20:10.542Z,25.80
2018-05-29T11:21:10.808Z,26.50
2018-05-29T11:22:10.543Z,26.40
2018-05-29T11:23:10.521Z,25.50
2018-05-29T11:24:10.545Z,24.90
2018-05-29T11:25:10.577Z,25.30
2018-05-29T11:26:10.571Z,24.60
2018-05-29T11:27:10.752Z,23.40
2018-05-29T11:28:10.591Z,22.20
2018-05-29T11:29:10.614Z,22.20
2018-05-29T11:30:10.616Z,22.70
2018-05-29T11:31:10.716Z,22.70
2018-05-29T11:32:10.755Z,24.20
2018-05-29T11:33:10.652Z,23.90
2018-05-29T11:34:10.668Z,24.00
2018-05-29T11:35:10.679Z,19.90
2018-05-29T11:36:10.700Z,23.30
2018-05-29T11:37:10.808Z,22.00
2018-05-29T11:38:10.748Z,23.40
2018-05-29T11:39:10.757Z,19.90
2018-05-29T11:40:10.746Z,23.10
2018-05-29T11:41:10.758Z,21.70
2018-05-29T11:42:10.951Z,20.50
2018-05-29T11:43:10.797Z,18.10
2018-05-29T11:44:10.825Z,19.70
2018-05-29T11:45:10.813Z,20.00
2018-05-29T11:46:10.854Z,19.90
2018-05-29T11:47:10.844Z,21.10
2018-05-29T11:48:10.851Z,22.30
2018-05-29T11:49:10.895Z,22.10
2018-05-29T11:50:10.897Z,21.60
2018-05-29T11:51:10.896Z,21.70
2018-05-29T11:52:10.938Z,20.50
2018-05-29T11:53:10.933Z,18.90
2018-05-29T11:54:10.948Z,21.00
2018-05-29T11:55:10.951Z,19.90
2018-05-29T11:56:10.978Z,18.50
2018-05-29T11:57:11.078Z,18.90
2018-05-29T11:58:10.993Z,19.60
2018-05-29T11:59:11.007Z,18.90
2018-05-29T12:00:11.049Z,18.60
2018-05-29T12:01:11.035Z,18.60
2018-05-29T12:02:11.179Z,17.50
2018-05-29T12:03:11.091Z,16.80
2018-05-29T12:04:11.106Z,17.50
2018-05-29T12:05:11.121Z,17.60
2018-05-29T12:06:11.125Z,16.90
2018-05-29T12:07:11.251Z,16.80
2018-05-29T12:08:11.140Z,16.20
2018-05-29T12:09:11.185Z,16.10
2018-05-29T12:10:11.197Z,14.90
2018-05-29T12:11:11.190Z,14.30
2018-05-29T12:12:11.379Z,14.50
2018-05-29T12:13:11.219Z,14.30
2018-05-29T12:14:11.235Z,14.10
2018-05-29T12:15:11.251Z,13.10
2018-05-29T12:16:11.293Z,13.10
2018-05-29T12:17:11.398Z,13.40
2018-05-29T12:18:11.328Z,13.60
2018-05-29T12:19:11.317Z,14.50
2018-05-29T12:20:11.348Z,14.30
2018-05-29T12:21:11.351Z,13.80
2018-05-29T12:22:11.474Z,13.50
2018-05-29T12:23:11.382Z,12.00
2018-05-29T12:24:11.400Z,13.10
2018-05-29T12:25:11.428Z,13.10
2018-05-29T12:26:11.440Z,13.60
2018-05-29T12:27:11.600Z,14.50
2018-05-29T12:28:11.481Z,13.10
2018-05-29T12:29:11.495Z,13.30
2018-05-29T12:30:11.530Z,13.20
2018-05-29T12:31:11.526Z,12.90
2018-05-29T12:32:11.563Z,13.50
2018-05-29T12:33:11.681Z,14.00
2018-05-29T12:34:11.573Z,12.90
2018-05-29T12:35:11.617Z,13.80
2018-05-29T12:36:11.617Z,14.40
2018-05-29T12:37:11.656Z,13.90
2018-05-29T12:38:11.744Z,12.80
2018-05-29T12:39:11.691Z,13.00
2018-05-29T12:40:11.690Z,13.30
2018-05-29T12:41:11.725Z,12.70
2018-05-29T12:42:11.717Z,12.90
2018-05-29T12:43:11.888Z,12.90
2018-05-29T12:44:11.782Z,13.00
2018-05-29T12:45:11.773Z,12.70
2018-05-29T12:46:11.809Z,13.20
2018-05-29T12:47:11.825Z,13.10
2018-05-29T12:48:11.933Z,12.60
2018-05-29T12:49:11.877Z,13.20
2018-05-29T12:50:11.878Z,12.00
2018-05-29T12:51:11.889Z,11.90
2018-05-29T12:52:11.906Z,11.70